TAP3178 SVMI-LPPT
Flight info
| Callsign | TAP3178 |
|---|---|
| Flight time | N/A |
| Altitude | 33000 |
| Route | VADOR2 MIQ UN669 MEBUK/N0490F350 UN669 ELJEZ/M083F350 DCT 20N055W 24N050W 28N045W 30N040W/M083F370 32N035W 33N030W 35N025W 36N020W DCT LUTAK/N0466F380 DCT ESUTI DCT |
| Aircraft | A339/H-SADE1E2E3GHIJ3J5M1P2RWXY/LB2D1 |
Departure
| Time | N/A |
|---|---|
| Airport | Maiquetía Simón Bolívar International Airport (SVMI) |
Arrival
| Time | 2026-05-05 11:46 |
|---|---|
| Airport | Lisbon Humberto Delgado Airport (LPPT) |
| Time | Latitude | Longitude | Altitude | Speed | Heading |
|---|---|---|---|---|---|
| 2026-05-05 11:04 | 37.70099 | -11.36736 | 32134 ft | 483 kts | 76° |
| 2026-05-05 11:04 | 37.70817 | -11.32662 | 31852 ft | 477 kts | 76° |
| 2026-05-05 11:05 | 37.71529 | -11.28591 | 31598 ft | 468 kts | 76° |
| 2026-05-05 11:05 | 37.72221 | -11.24634 | 31346 ft | 459 kts | 76° |
| 2026-05-05 11:05 | 37.72901 | -11.20736 | 31092 ft | 450 kts | 76° |
| 2026-05-05 11:05 | 37.73566 | -11.16910 | 30838 ft | 441 kts | 75° |
| 2026-05-05 11:06 | 37.74219 | -11.13140 | 30586 ft | 436 kts | 75° |
| 2026-05-05 11:06 | 37.74866 | -11.09396 | 30333 ft | 432 kts | 75° |
| 2026-05-05 11:06 | 37.75504 | -11.05702 | 30083 ft | 430 kts | 75° |
| 2026-05-05 11:06 | 37.76137 | -11.02035 | 29833 ft | 427 kts | 75° |
| 2026-05-05 11:07 | 37.76769 | -10.98364 | 29581 ft | 425 kts | 75° |
| 2026-05-05 11:07 | 37.77393 | -10.94729 | 29331 ft | 424 kts | 75° |
| 2026-05-05 11:07 | 37.78018 | -10.91086 | 29080 ft | 422 kts | 75° |
| 2026-05-05 11:07 | 37.78620 | -10.87572 | 28836 ft | 420 kts | 75° |
| 2026-05-05 11:08 | 37.78960 | -10.85580 | 28698 ft | 420 kts | 75° |
| 2026-05-05 11:08 | 37.79310 | -10.83534 | 28556 ft | 419 kts | 75° |
| 2026-05-05 11:08 | 37.79923 | -10.79934 | 28305 ft | 417 kts | 75° |
| 2026-05-05 11:08 | 37.80532 | -10.76354 | 28054 ft | 415 kts | 75° |
| 2026-05-05 11:09 | 37.81053 | -10.73284 | 27836 ft | 414 kts | 75° |
| 2026-05-05 11:09 | 37.81377 | -10.71366 | 27688 ft | 412 kts | 74° |
| 2026-05-05 11:09 | 37.81718 | -10.69376 | 27547 ft | 411 kts | 75° |
| 2026-05-05 11:09 | 37.82310 | -10.65867 | 27297 ft | 409 kts | 75° |
| 2026-05-05 11:10 | 37.82904 | -10.62348 | 27046 ft | 407 kts | 74° |
| 2026-05-05 11:10 | 37.83499 | -10.58816 | 26793 ft | 405 kts | 74° |
| 2026-05-05 11:10 | 37.84082 | -10.55347 | 26543 ft | 403 kts | 74° |
| 2026-05-05 11:10 | 37.84670 | -10.51844 | 26290 ft | 401 kts | 74° |
| 2026-05-05 11:11 | 37.85243 | -10.48473 | 26044 ft | 399 kts | 72° |
| 2026-05-05 11:11 | 37.86085 | -10.45155 | 25789 ft | 392 kts | 62° |
| 2026-05-05 11:11 | 37.87335 | -10.42208 | 25545 ft | 384 kts | 52° |
| 2026-05-05 11:11 | 37.88940 | -10.39530 | 25294 ft | 376 kts | 43° |
| 2026-05-05 11:12 | 37.90714 | -10.37097 | 25045 ft | 374 kts | 42° |
| 2026-05-05 11:12 | 37.92452 | -10.34645 | 24793 ft | 371 kts | 42° |
| 2026-05-05 11:12 | 37.94192 | -10.32234 | 24542 ft | 369 kts | 41° |
| 2026-05-05 11:12 | 37.95913 | -10.29870 | 24294 ft | 366 kts | 41° |
| 2026-05-05 11:13 | 37.97645 | -10.27505 | 24043 ft | 364 kts | 41° |
| 2026-05-05 11:13 | 37.99383 | -10.25142 | 23790 ft | 362 kts | 41° |
| 2026-05-05 11:13 | 38.01075 | -10.22848 | 23542 ft | 359 kts | 41° |
| 2026-05-05 11:13 | 38.02797 | -10.20516 | 23289 ft | 357 kts | 41° |
| 2026-05-05 11:14 | 38.04486 | -10.18233 | 23039 ft | 355 kts | 41° |
| 2026-05-05 11:14 | 38.06151 | -10.15984 | 22792 ft | 352 kts | 41° |
| 2026-05-05 11:14 | 38.07759 | -10.13811 | 22551 ft | 349 kts | 41° |
| 2026-05-05 11:14 | 38.09388 | -10.11611 | 22304 ft | 344 kts | 41° |
| 2026-05-05 11:15 | 38.11017 | -10.09411 | 22053 ft | 340 kts | 41° |
| 2026-05-05 11:15 | 38.12629 | -10.07234 | 21803 ft | 336 kts | 41° |
| 2026-05-05 11:15 | 38.14226 | -10.05076 | 21551 ft | 332 kts | 42° |
| 2026-05-05 11:15 | 38.15811 | -10.02956 | 21301 ft | 328 kts | 40° |
| 2026-05-05 11:16 | 38.17484 | -10.01062 | 21052 ft | 323 kts | 34° |
| 2026-05-05 11:16 | 38.19315 | -9.99446 | 20802 ft | 318 kts | 29° |
| 2026-05-05 11:16 | 38.21242 | -9.98081 | 20551 ft | 315 kts | 25° |
| 2026-05-05 11:16 | 38.23181 | -9.96803 | 20301 ft | 314 kts | 26° |
| 2026-05-05 11:17 | 38.25112 | -9.95525 | 20051 ft | 312 kts | 26° |
| 2026-05-05 11:17 | 38.27002 | -9.94293 | 19806 ft | 311 kts | 26° |
| 2026-05-05 11:17 | 38.28916 | -9.93052 | 19557 ft | 310 kts | 27° |
| 2026-05-05 11:17 | 38.30811 | -9.91830 | 19310 ft | 310 kts | 27° |
| 2026-05-05 11:18 | 38.32737 | -9.90591 | 19059 ft | 309 kts | 27° |
| 2026-05-05 11:18 | 38.34664 | -9.89351 | 18807 ft | 309 kts | 28° |
| 2026-05-05 11:18 | 38.36601 | -9.88110 | 18555 ft | 309 kts | 28° |
| 2026-05-05 11:18 | 38.38525 | -9.86878 | 18304 ft | 310 kts | 29° |
| 2026-05-05 11:19 | 38.40452 | -9.85643 | 18054 ft | 312 kts | 30° |
| 2026-05-05 11:19 | 38.42401 | -9.84391 | 17803 ft | 312 kts | 30° |
| 2026-05-05 11:19 | 38.44350 | -9.83135 | 17551 ft | 311 kts | 30° |
| 2026-05-05 11:19 | 38.46270 | -9.81899 | 17302 ft | 311 kts | 30° |
| 2026-05-05 11:20 | 38.48198 | -9.80659 | 17052 ft | 310 kts | 30° |
| 2026-05-05 11:20 | 38.50155 | -9.79398 | 16797 ft | 309 kts | 30° |
| 2026-05-05 11:20 | 38.52073 | -9.78164 | 16547 ft | 309 kts | 30° |
| 2026-05-05 11:20 | 38.53985 | -9.76933 | 16297 ft | 308 kts | 31° |
| 2026-05-05 11:21 | 38.55710 | -9.75822 | 16071 ft | 308 kts | 31° |
| 2026-05-05 11:21 | 38.57618 | -9.74593 | 15821 ft | 307 kts | 31° |
| 2026-05-05 11:21 | 38.59524 | -9.73364 | 15571 ft | 307 kts | 31° |
| 2026-05-05 11:21 | 38.61468 | -9.72110 | 15316 ft | 306 kts | 31° |
| 2026-05-05 11:22 | 38.63338 | -9.70903 | 15069 ft | 306 kts | 31° |
| 2026-05-05 11:22 | 38.65237 | -9.69678 | 14816 ft | 301 kts | 31° |
| 2026-05-05 11:22 | 38.67080 | -9.68487 | 14565 ft | 295 kts | 31° |
| 2026-05-05 11:22 | 38.68931 | -9.67291 | 14309 ft | 290 kts | 31° |
| 2026-05-05 11:23 | 38.70670 | -9.66166 | 14064 ft | 286 kts | 31° |
| 2026-05-05 11:23 | 38.72441 | -9.65018 | 13813 ft | 284 kts | 31° |
| 2026-05-05 11:23 | 38.74194 | -9.63882 | 13563 ft | 282 kts | 31° |
| 2026-05-05 11:23 | 38.75697 | -9.62908 | 13347 ft | 281 kts | 31° |
| 2026-05-05 11:24 | 38.77431 | -9.61782 | 13097 ft | 280 kts | 31° |
| 2026-05-05 11:24 | 38.77523 | -9.61722 | 13083 ft | 280 kts | 31° |
| 2026-05-05 11:24 | 38.78086 | -9.61356 | 13000 ft | 280 kts | 31° |
| 2026-05-05 11:24 | 38.79258 | -9.60597 | 12831 ft | 279 kts | 31° |
| 2026-05-05 11:25 | 38.81514 | -9.59132 | 12505 ft | 278 kts | 31° |
| 2026-05-05 11:25 | 38.83198 | -9.57973 | 12260 ft | 282 kts | 25° |
| 2026-05-05 11:25 | 38.84932 | -9.56853 | 12018 ft | 283 kts | 20° |
| 2026-05-05 11:25 | 38.86709 | -9.55726 | 11766 ft | 282 kts | 21° |
| 2026-05-05 11:26 | 38.88489 | -9.54639 | 11508 ft | 277 kts | 15° |
| 2026-05-05 11:26 | 38.90304 | -9.53931 | 11263 ft | 274 kts | 13° |
| 2026-05-05 11:26 | 38.92121 | -9.53160 | 11008 ft | 272 kts | 13° |
| 2026-05-05 11:26 | 38.93881 | -9.52430 | 10764 ft | 270 kts | 13° |
| 2026-05-05 11:27 | 38.95678 | -9.51684 | 10513 ft | 269 kts | 13° |
| 2026-05-05 11:27 | 38.97454 | -9.50949 | 10263 ft | 268 kts | 13° |
| 2026-05-05 11:27 | 38.98655 | -9.50451 | 10091 ft | 267 kts | 13° |
| 2026-05-05 11:27 | 39.00404 | -9.49727 | 9845 ft | 266 kts | 13° |
| 2026-05-05 11:28 | 39.02157 | -9.49001 | 9595 ft | 264 kts | 13° |
| 2026-05-05 11:28 | 39.03888 | -9.48283 | 9346 ft | 263 kts | 13° |
| 2026-05-05 11:28 | 39.05637 | -9.47559 | 9095 ft | 262 kts | 13° |
| 2026-05-05 11:28 | 39.07344 | -9.46853 | 8848 ft | 261 kts | 13° |
| 2026-05-05 11:29 | 39.09074 | -9.46136 | 8597 ft | 260 kts | 13° |
| 2026-05-05 11:29 | 39.10805 | -9.45417 | 8346 ft | 260 kts | 13° |
| 2026-05-05 11:29 | 39.12490 | -9.44574 | 8184 ft | 260 kts | 26° |
| 2026-05-05 11:29 | 39.13786 | -9.42934 | 8149 ft | 264 kts | 53° |
| 2026-05-05 11:30 | 39.14367 | -9.40731 | 8142 ft | 269 kts | 80° |
| 2026-05-05 11:30 | 39.14296 | -9.38300 | 8149 ft | 270 kts | 90° |
| 2026-05-05 11:30 | 39.14282 | -9.35904 | 8142 ft | 266 kts | 86° |
| 2026-05-05 11:30 | 39.14267 | -9.33523 | 8140 ft | 264 kts | 87° |
| 2026-05-05 11:31 | 39.14259 | -9.31165 | 8138 ft | 264 kts | 86° |
| 2026-05-05 11:31 | 39.14253 | -9.28815 | 8139 ft | 262 kts | 86° |
| 2026-05-05 11:31 | 39.14421 | -9.26625 | 8132 ft | 257 kts | 69° |
| 2026-05-05 11:31 | 39.15259 | -9.24660 | 8150 ft | 248 kts | 47° |
| 2026-05-05 11:32 | 39.16216 | -9.22806 | 8142 ft | 252 kts | 55° |
| 2026-05-05 11:32 | 39.17135 | -9.20892 | 8141 ft | 249 kts | 51° |
| 2026-05-05 11:32 | 39.18086 | -9.19029 | 8141 ft | 250 kts | 52° |
| 2026-05-05 11:32 | 39.19016 | -9.17150 | 8138 ft | 251 kts | 55° |
| 2026-05-05 11:33 | 39.19673 | -9.15112 | 8138 ft | 257 kts | 71° |
| 2026-05-05 11:33 | 39.20011 | -9.12757 | 8143 ft | 258 kts | 73° |
| 2026-05-05 11:33 | 39.20066 | -9.12439 | 8142 ft | 258 kts | 72° |
| 2026-05-05 11:34 | 39.20211 | -9.11623 | 8142 ft | 257 kts | 73° |
| 2026-05-05 11:34 | 39.20582 | -9.09364 | 8140 ft | 258 kts | 74° |
| 2026-05-05 11:34 | 39.20943 | -9.07086 | 8126 ft | 259 kts | 76° |
| 2026-05-05 11:34 | 39.20906 | -9.04742 | 7681 ft | 269 kts | 100° |
| 2026-05-05 11:35 | 39.20115 | -9.02578 | 6746 ft | 269 kts | 129° |
| 2026-05-05 11:35 | 39.18631 | -9.01164 | 6573 ft | 268 kts | 158° |
| 2026-05-05 11:35 | 39.16818 | -9.00733 | 6472 ft | 267 kts | 186° |
| 2026-05-05 11:35 | 39.15045 | -9.01352 | 6168 ft | 260 kts | 213° |
| 2026-05-05 11:36 | 39.13534 | -9.02567 | 5827 ft | 259 kts | 212° |
| 2026-05-05 11:36 | 39.11939 | -9.03462 | 5726 ft | 238 kts | 206° |
| 2026-05-05 11:36 | 39.10439 | -9.04199 | 5637 ft | 221 kts | 204° |
| 2026-05-05 11:36 | 39.09023 | -9.04793 | 5594 ft | 213 kts | 201° |
| 2026-05-05 11:37 | 39.07589 | -9.05320 | 5481 ft | 210 kts | 199° |
| 2026-05-05 11:37 | 39.06166 | -9.05783 | 5415 ft | 209 kts | 198° |
| 2026-05-05 11:37 | 39.04744 | -9.06212 | 5247 ft | 213 kts | 197° |
| 2026-05-05 11:37 | 39.03315 | -9.06598 | 4833 ft | 211 kts | 190° |
| 2026-05-05 11:38 | 39.01879 | -9.06331 | 4460 ft | 208 kts | 154° |
| 2026-05-05 11:38 | 39.00688 | -9.05366 | 4285 ft | 197 kts | 149° |
| 2026-05-05 11:38 | 38.99559 | -9.04548 | 4172 ft | 190 kts | 150° |
| 2026-05-05 11:38 | 38.99268 | -9.04322 | 4174 ft | 187 kts | 148° |
| 2026-05-05 11:39 | 38.98968 | -9.04081 | 4150 ft | 185 kts | 149° |
| 2026-05-05 11:39 | 38.97844 | -9.03410 | 4144 ft | 176 kts | 169° |
| 2026-05-05 11:39 | 38.96700 | -9.03574 | 4079 ft | 161 kts | 210° |
| 2026-05-05 11:39 | 38.95707 | -9.04176 | 4045 ft | 160 kts | 205° |
| 2026-05-05 11:40 | 38.94668 | -9.04729 | 3749 ft | 163 kts | 207° |
| 2026-05-05 11:40 | 38.93608 | -9.05298 | 3412 ft | 162 kts | 206° |
| 2026-05-05 11:40 | 38.92597 | -9.05846 | 3203 ft | 155 kts | 207° |
| 2026-05-05 11:40 | 38.92558 | -9.05869 | 3199 ft | 155 kts | 207° |
| 2026-05-05 11:41 | 38.92223 | -9.06051 | 3182 ft | 153 kts | 206° |
| 2026-05-05 11:41 | 38.91230 | -9.06567 | 3002 ft | 155 kts | 205° |
| 2026-05-05 11:42 | 38.90249 | -9.07090 | 2952 ft | 153 kts | 207° |
| 2026-05-05 11:42 | 38.89240 | -9.07647 | 2616 ft | 161 kts | 206° |
| 2026-05-05 11:42 | 38.88539 | -9.08020 | 2397 ft | 160 kts | 206° |
| 2026-05-05 11:42 | 38.88369 | -9.08111 | 2349 ft | 159 kts | 206° |
| 2026-05-05 11:43 | 38.87380 | -9.08640 | 2176 ft | 155 kts | 206° |
| 2026-05-05 11:43 | 38.86386 | -9.09182 | 1985 ft | 153 kts | 206° |
| 2026-05-05 11:43 | 38.85403 | -9.09689 | 1792 ft | 151 kts | 206° |
| 2026-05-05 11:43 | 38.84800 | -9.10022 | 1676 ft | 149 kts | 206° |
| 2026-05-05 11:44 | 38.84697 | -9.10077 | 1660 ft | 149 kts | 206° |
| 2026-05-05 11:44 | 38.83740 | -9.10588 | 1451 ft | 148 kts | 206° |
| 2026-05-05 11:44 | 38.83573 | -9.10677 | 1420 ft | 148 kts | 206° |
| 2026-05-05 11:44 | 38.82640 | -9.11184 | 1272 ft | 147 kts | 207° |
| 2026-05-05 11:45 | 38.81700 | -9.11623 | 1054 ft | 148 kts | 200° |
| 2026-05-05 11:45 | 38.80748 | -9.12108 | 842 ft | 149 kts | 208° |
| 2026-05-05 11:45 | 38.79821 | -9.12657 | 583 ft | 147 kts | 208° |
| 2026-05-05 11:45 | 38.78897 | -9.13182 | 446 ft | 133 kts | 203° |
| 2026-05-05 11:46 | 38.78169 | -9.13582 | 392 ft | 88 kts | 204° |
| 2026-05-05 11:46 | 38.77802 | -9.13761 | 392 ft | 29 kts | 192° |
| 2026-05-05 11:46 | 38.77627 | -9.13860 | 392 ft | 28 kts | 200° |
| 2026-05-05 11:46 | 38.77427 | -9.13906 | 392 ft | 30 kts | 176° |
| 2026-05-05 11:47 | 38.77248 | -9.13866 | 392 ft | 19 kts | 119° |
| 2026-05-05 11:47 | 38.77262 | -9.13723 | 392 ft | 18 kts | 79° |
| 2026-05-05 11:47 | 38.77291 | -9.13544 | 392 ft | 22 kts | 78° |
| 2026-05-05 11:47 | 38.77321 | -9.13364 | 392 ft | 20 kts | 77° |
| 2026-05-05 11:48 | 38.77357 | -9.13260 | 392 ft | 0 kts | 10° |